sensor_id;sensor_type;location;lat;lon;timestamp;temperature;humidity
12166;DHT22;6146;48.128;11.476;2023-06-14T00:01:46;12.70;91.90
12166;DHT22;6146;48.128;11.476;2023-06-14T00:04:12;12.60;92.30
12166;DHT22;6146;48.128;11.476;2023-06-14T00:06:38;12.60;92.60
12166;DHT22;6146;48.128;11.476;2023-06-14T00:09:04;12.60;93.10
12166;DHT22;6146;48.128;11.476;2023-06-14T00:11:33;12.50;93.30
12166;DHT22;6146;48.128;11.476;2023-06-14T00:13:59;12.50;93.80
12166;DHT22;6146;48.128;11.476;2023-06-14T00:16:24;12.50;94.20
12166;DHT22;6146;48.128;11.476;2023-06-14T00:18:50;12.40;94.40
12166;DHT22;6146;48.128;11.476;2023-06-14T00:21:19;12.40;94.70
12166;DHT22;6146;48.128;11.476;2023-06-14T00:23:44;12.30;95.10
12166;DHT22;6146;48.128;11.476;2023-06-14T00:26:10;12.20;95.50
12166;DHT22;6146;48.128;11.476;2023-06-14T00:28:35;12.20;96.20
12166;DHT22;6146;48.128;11.476;2023-06-14T00:31:01;12.20;96.50
12166;DHT22;6146;48.128;11.476;2023-06-14T00:33:26;12.20;96.90
12166;DHT22;6146;48.128;11.476;2023-06-14T00:35:52;12.10;97.10
12166;DHT22;6146;48.128;11.476;2023-06-14T00:38:21;12.10;97.40
12166;DHT22;6146;48.128;11.476;2023-06-14T00:40:46;12.00;97.60
12166;DHT22;6146;48.128;11.476;2023-06-14T00:43:12;12.00;97.90
12166;DHT22;6146;48.128;11.476;2023-06-14T00:45:38;12.00;98.30
12166;DHT22;6146;48.128;11.476;2023-06-14T00:48:05;12.00;99.00
12166;DHT22;6146;48.128;11.476;2023-06-14T00:50:31;11.90;99.20
12166;DHT22;6146;48.128;11.476;2023-06-14T00:52:59;11.90;99.30
12166;DHT22;6146;48.128;11.476;2023-06-14T00:55:25;11.80;99.80
12166;DHT22;6146;48.128;11.476;2023-06-14T00:57:51;11.80;99.90
12166;DHT22;6146;48.128;11.476;2023-06-14T01:00:16;11.70;99.90
12166;DHT22;6146;48.128;11.476;2023-06-14T01:02:42;11.70;99.90
12166;DHT22;6146;48.128;11.476;2023-06-14T01:05:08;11.60;99.90
12166;DHT22;6146;48.128;11.476;2023-06-14T01:08:10;11.60;99.90
12166;DHT22;6146;48.128;11.476;2023-06-14T01:15:51;11.50;99.90
12166;DHT22;6146;48.128;11.476;2023-06-14T01:18:17;11.40;99.90
12166;DHT22;6146;48.128;11.476;2023-06-14T01:20:45;11.40;99.90
12166;DHT22;6146;48.128;11.476;2023-06-14T01:23:11;11.40;99.90
12166;DHT22;6146;48.128;11.476;2023-06-14T01:25:37;11.40;99.90
12166;DHT22;6146;48.128;11.476;2023-06-14T01:28:06;10.60;99.90
12166;DHT22;6146;48.128;11.476;2023-06-14T01:30:40;11.30;99.90
12166;DHT22;6146;48.128;11.476;2023-06-14T01:33:12;11.30;99.90
12166;DHT22;6146;48.128;11.476;2023-06-14T01:35:38;11.20;99.90
12166;DHT22;6146;48.128;11.476;2023-06-14T01:38:04;11.20;99.90
12166;DHT22;6146;48.128;11.476;2023-06-14T01:40:30;11.20;99.90
12166;DHT22;6146;48.128;11.476;2023-06-14T01:42:57;11.20;99.90
12166;DHT22;6146;48.128;11.476;2023-06-14T01:45:23;11.10;99.90
12166;DHT22;6146;48.128;11.476;2023-06-14T01:47:49;11.10;99.90
12166;DHT22;6146;48.128;11.476;2023-06-14T01:50:16;11.10;99.90
12166;DHT22;6146;48.128;11.476;2023-06-14T01:52:41;11.10;99.90
12166;DHT22;6146;48.128;11.476;2023-06-14T01:55:07;11.10;99.90
12166;DHT22;6146;48.128;11.476;2023-06-14T01:57:33;11.00;99.90
12166;DHT22;6146;48.128;11.476;2023-06-14T01:59:59;11.00;99.90
12166;DHT22;6146;48.128;11.476;2023-06-14T02:02:24;11.00;99.90
12166;DHT22;6146;48.128;11.476;2023-06-14T02:04:50;11.10;99.90
12166;DHT22;6146;48.128;11.476;2023-06-14T02:07:15;11.10;99.90
12166;DHT22;6146;48.128;11.476;2023-06-14T02:09:41;11.10;99.90
12166;DHT22;6146;48.128;11.476;2023-06-14T02:12:07;11.10;99.90
12166;DHT22;6146;48.128;11.476;2023-06-14T02:14:33;11.10;99.90
12166;DHT22;6146;48.128;11.476;2023-06-14T02:16:59;11.10;99.90
12166;DHT22;6146;48.128;11.476;2023-06-14T02:19:26;11.00;99.90
12166;DHT22;6146;48.128;11.476;2023-06-14T02:21:52;10.90;99.90
12166;DHT22;6146;48.128;11.476;2023-06-14T02:24:18;10.80;99.90
12166;DHT22;6146;48.128;11.476;2023-06-14T02:26:43;10.80;99.90
12166;DHT22;6146;48.128;11.476;2023-06-14T02:29:09;10.70;99.90
12166;DHT22;6146;48.128;11.476;2023-06-14T02:31:38;10.70;99.90
12166;DHT22;6146;48.128;11.476;2023-06-14T02:34:03;10.70;99.90
12166;DHT22;6146;48.128;11.476;2023-06-14T02:36:29;10.60;99.90
12166;DHT22;6146;48.128;11.476;2023-06-14T02:38:56;10.60;99.90
12166;DHT22;6146;48.128;11.476;2023-06-14T02:41:23;10.60;99.90
12166;DHT22;6146;48.128;11.476;2023-06-14T02:43:49;10.50;99.90
12166;DHT22;6146;48.128;11.476;2023-06-14T02:46:14;10.50;99.90
12166;DHT22;6146;48.128;11.476;2023-06-14T02:48:40;10.40;99.90
12166;DHT22;6146;48.128;11.476;2023-06-14T02:51:05;10.40;99.90
12166;DHT22;6146;48.128;11.476;2023-06-14T02:53:32;10.40;99.90
12166;DHT22;6146;48.128;11.476;2023-06-14T02:55:57;10.30;99.90
12166;DHT22;6146;48.128;11.476;2023-06-14T02:58:23;10.30;99.90
12166;DHT22;6146;48.128;11.476;2023-06-14T03:00:50;10.30;99.90
12166;DHT22;6146;48.128;11.476;2023-06-14T03:03:17;10.30;99.90
12166;DHT22;6146;48.128;11.476;2023-06-14T03:05:45;10.30;99.90
12166;DHT22;6146;48.128;11.476;2023-06-14T03:08:15;10.20;99.90
12166;DHT22;6146;48.128;11.476;2023-06-14T03:10:46;10.10;99.90
12166;DHT22;6146;48.128;11.476;2023-06-14T03:13:13;10.10;99.90
12166;DHT22;6146;48.128;11.476;2023-06-14T03:15:38;10.10;99.90
12166;DHT22;6146;48.128;11.476;2023-06-14T03:18:09;10.00;99.90
12166;DHT22;6146;48.128;11.476;2023-06-14T03:20:38;10.00;99.90
12166;DHT22;6146;48.128;11.476;2023-06-14T03:23:04;10.00;99.90
12166;DHT22;6146;48.128;11.476;2023-06-14T03:25:31;9.90;99.90
12166;DHT22;6146;48.128;11.476;2023-06-14T03:27:57;9.90;99.90
12166;DHT22;6146;48.128;11.476;2023-06-14T03:30:23;10.00;99.90
12166;DHT22;6146;48.128;11.476;2023-06-14T03:32:48;10.10;99.90
12166;DHT22;6146;48.128;11.476;2023-06-14T03:35:14;10.10;99.90
12166;DHT22;6146;48.128;11.476;2023-06-14T03:37:46;10.10;99.90
12166;DHT22;6146;48.128;11.476;2023-06-14T03:40:14;10.20;99.90
12166;DHT22;6146;48.128;11.476;2023-06-14T03:42:40;10.00;99.90
12166;DHT22;6146;48.128;11.476;2023-06-14T03:45:07;10.10;99.90
12166;DHT22;6146;48.128;11.476;2023-06-14T03:47:34;10.20;99.90
12166;DHT22;6146;48.128;11.476;2023-06-14T03:49:59;10.20;99.90
12166;DHT22;6146;48.128;11.476;2023-06-14T03:52:26;10.20;99.90
12166;DHT22;6146;48.128;11.476;2023-06-14T03:54:52;10.30;99.90
12166;DHT22;6146;48.128;11.476;2023-06-14T03:57:18;10.40;99.90
12166;DHT22;6146;48.128;11.476;2023-06-14T03:59:43;10.40;99.90
12166;DHT22;6146;48.128;11.476;2023-06-14T04:02:09;10.40;99.90
12166;DHT22;6146;48.128;11.476;2023-06-14T04:04:35;10.50;99.90
12166;DHT22;6146;48.128;11.476;2023-06-14T04:07:01;10.50;99.90
12166;DHT22;6146;48.128;11.476;2023-06-14T04:09:29;10.60;99.90
12166;DHT22;6146;48.128;11.476;2023-06-14T04:11:55;10.70;99.90
12166;DHT22;6146;48.128;11.476;2023-06-14T04:14:21;10.80;99.90
12166;DHT22;6146;48.128;11.476;2023-06-14T04:16:47;10.80;99.90
12166;DHT22;6146;48.128;11.476;2023-06-14T04:19:14;11.00;99.90
12166;DHT22;6146;48.128;11.476;2023-06-14T04:21:40;11.10;99.90
12166;DHT22;6146;48.128;11.476;2023-06-14T04:24:05;11.20;99.90
12166;DHT22;6146;48.128;11.476;2023-06-14T04:26:32;11.40;99.90
12166;DHT22;6146;48.128;11.476;2023-06-14T04:28:59;11.50;99.90
12166;DHT22;6146;48.128;11.476;2023-06-14T04:31:31;11.70;99.90
12166;DHT22;6146;48.128;11.476;2023-06-14T04:33:59;12.60;99.90
12166;DHT22;6146;48.128;11.476;2023-06-14T04:36:25;13.20;99.90
12166;DHT22;6146;48.128;11.476;2023-06-14T04:38:53;13.90;99.90
12166;DHT22;6146;48.128;11.476;2023-06-14T04:41:21;15.50;99.90
12166;DHT22;6146;48.128;11.476;2023-06-14T04:43:48;17.20;99.90
12166;DHT22;6146;48.128;11.476;2023-06-14T04:46:15;18.60;97.20
12166;DHT22;6146;48.128;11.476;2023-06-14T04:48:41;19.90;93.60
12166;DHT22;6146;48.128;11.476;2023-06-14T04:51:08;21.10;88.50
12166;DHT22;6146;48.128;11.476;2023-06-14T04:53:35;22.20;81.50
12166;DHT22;6146;48.128;11.476;2023-06-14T04:56:01;23.10;74.20
12166;DHT22;6146;48.128;11.476;2023-06-14T04:58:29;24.00;69.30
12166;DHT22;6146;48.128;11.476;2023-06-14T05:00:55;24.50;58.00
12166;DHT22;6146;48.128;11.476;2023-06-14T05:03:22;24.30;58.20
12166;DHT22;6146;48.128;11.476;2023-06-14T05:05:49;24.20;56.70
12166;DHT22;6146;48.128;11.476;2023-06-14T05:08:16;24.00;56.40
12166;DHT22;6146;48.128;11.476;2023-06-14T05:10:41;24.00;55.90
12166;DHT22;6146;48.128;11.476;2023-06-14T05:13:07;23.90;57.40
12166;DHT22;6146;48.128;11.476;2023-06-14T05:15:33;24.30;55.80
12166;DHT22;6146;48.128;11.476;2023-06-14T05:17:58;23.90;55.80
12166;DHT22;6146;48.128;11.476;2023-06-14T05:20:24;23.60;55.70
12166;DHT22;6146;48.128;11.476;2023-06-14T05:22:54;23.60;55.90
12166;DHT22;6146;48.128;11.476;2023-06-14T05:25:22;23.80;54.30
12166;DHT22;6146;48.128;11.476;2023-06-14T05:27:48;24.50;53.80
12166;DHT22;6146;48.128;11.476;2023-06-14T05:30:15;24.00;54.00
12166;DHT22;6146;48.128;11.476;2023-06-14T05:32:40;24.60;53.50
12166;DHT22;6146;48.128;11.476;2023-06-14T05:35:07;25.00;51.30
12166;DHT22;6146;48.128;11.476;2023-06-14T05:37:32;24.80;52.50
12166;DHT22;6146;48.128;11.476;2023-06-14T05:39:58;25.30;51.40
12166;DHT22;6146;48.128;11.476;2023-06-14T05:42:23;25.10;51.50
12166;DHT22;6146;48.128;11.476;2023-06-14T05:44:49;25.30;51.00
12166;DHT22;6146;48.128;11.476;2023-06-14T05:47:15;25.70;50.00
12166;DHT22;6146;48.128;11.476;2023-06-14T05:49:41;26.40;48.90
12166;DHT22;6146;48.128;11.476;2023-06-14T05:52:07;27.40;47.40
12166;DHT22;6146;48.128;11.476;2023-06-14T05:54:33;27.70;45.70
12166;DHT22;6146;48.128;11.476;2023-06-14T05:56:59;27.60;45.40
12166;DHT22;6146;48.128;11.476;2023-06-14T05:59:27;27.30;46.20
12166;DHT22;6146;48.128;11.476;2023-06-14T06:01:52;27.40;46.20
12166;DHT22;6146;48.128;11.476;2023-06-14T06:04:18;27.70;45.10
12166;DHT22;6146;48.128;11.476;2023-06-14T06:06:45;27.30;45.40
12166;DHT22;6146;48.128;11.476;2023-06-14T06:09:10;26.60;46.00
12166;DHT22;6146;48.128;11.476;2023-06-14T06:11:36;25.90;47.70
12166;DHT22;6146;48.128;11.476;2023-06-14T06:14:01;26.40;46.40
12166;DHT22;6146;48.128;11.476;2023-06-14T06:16:27;26.40;46.40
12166;DHT22;6146;48.128;11.476;2023-06-14T06:18:52;26.10;47.00
12166;DHT22;6146;48.128;11.476;2023-06-14T06:21:18;26.40;47.20
12166;DHT22;6146;48.128;11.476;2023-06-14T06:23:44;27.40;46.10
12166;DHT22;6146;48.128;11.476;2023-06-14T06:26:09;28.70;43.30
12166;DHT22;6146;48.128;11.476;2023-06-14T06:28:35;29.40;42.10
12166;DHT22;6146;48.128;11.476;2023-06-14T06:31:00;29.80;41.50
12166;DHT22;6146;48.128;11.476;2023-06-14T06:33:26;30.00;40.30
12166;DHT22;6146;48.128;11.476;2023-06-14T06:35:52;29.60;41.80
12166;DHT22;6146;48.128;11.476;2023-06-14T06:38:17;29.30;40.90
12166;DHT22;6146;48.128;11.476;2023-06-14T06:40:44;29.20;41.20
12166;DHT22;6146;48.128;11.476;2023-06-14T06:43:10;29.90;40.30
12166;DHT22;6146;48.128;11.476;2023-06-14T06:45:39;29.60;40.50
12166;DHT22;6146;48.128;11.476;2023-06-14T06:48:05;29.10;41.20
12166;DHT22;6146;48.128;11.476;2023-06-14T06:50:30;28.80;41.40
12166;DHT22;6146;48.128;11.476;2023-06-14T06:52:56;28.60;41.70
12166;DHT22;6146;48.128;11.476;2023-06-14T06:55:21;29.40;41.60
12166;DHT22;6146;48.128;11.476;2023-06-14T06:57:47;30.90;38.60
12166;DHT22;6146;48.128;11.476;2023-06-14T07:00:13;31.80;37.80
12166;DHT22;6146;48.128;11.476;2023-06-14T07:02:39;32.40;36.30
12166;DHT22;6146;48.128;11.476;2023-06-14T07:05:04;32.20;35.90
12166;DHT22;6146;48.128;11.476;2023-06-14T07:07:31;31.60;36.40
12166;DHT22;6146;48.128;11.476;2023-06-14T07:09:56;31.30;37.00
12166;DHT22;6146;48.128;11.476;2023-06-14T07:12:23;31.50;36.10
12166;DHT22;6146;48.128;11.476;2023-06-14T07:14:48;30.80;37.50
12166;DHT22;6146;48.128;11.476;2023-06-14T07:17:14;31.00;37.50
12166;DHT22;6146;48.128;11.476;2023-06-14T07:19:40;31.60;36.70
12166;DHT22;6146;48.128;11.476;2023-06-14T07:22:05;33.10;35.10
12166;DHT22;6146;48.128;11.476;2023-06-14T07:24:31;33.60;33.70
12166;DHT22;6146;48.128;11.476;2023-06-14T07:26:56;32.90;34.30
12166;DHT22;6146;48.128;11.476;2023-06-14T07:29:22;32.40;35.00
12166;DHT22;6146;48.128;11.476;2023-06-14T07:31:47;32.60;33.90
12166;DHT22;6146;48.128;11.476;2023-06-14T07:34:13;32.10;34.50
12166;DHT22;6146;48.128;11.476;2023-06-14T07:36:38;32.60;34.60
12166;DHT22;6146;48.128;11.476;2023-06-14T07:39:04;33.10;32.70
12166;DHT22;6146;48.128;11.476;2023-06-14T07:41:32;33.20;34.90
12166;DHT22;6146;48.128;11.476;2023-06-14T07:43:58;33.00;33.40
12166;DHT22;6146;48.128;11.476;2023-06-14T07:46:23;33.90;33.50
12166;DHT22;6146;48.128;11.476;2023-06-14T07:48:49;34.10;32.80
12166;DHT22;6146;48.128;11.476;2023-06-14T07:51:15;34.50;31.00
12166;DHT22;6146;48.128;11.476;2023-06-14T07:53:40;33.60;32.10
12166;DHT22;6146;48.128;11.476;2023-06-14T07:56:07;32.30;32.90
12166;DHT22;6146;48.128;11.476;2023-06-14T07:58:32;32.30;33.20
12166;DHT22;6146;48.128;11.476;2023-06-14T08:00:58;33.20;33.00
12166;DHT22;6146;48.128;11.476;2023-06-14T08:03:24;33.40;32.00
12166;DHT22;6146;48.128;11.476;2023-06-14T08:05:50;32.90;32.50
12166;DHT22;6146;48.128;11.476;2023-06-14T08:08:16;32.80;31.70
12166;DHT22;6146;48.128;11.476;2023-06-14T08:10:42;33.30;31.30
12166;DHT22;6146;48.128;11.476;2023-06-14T08:13:07;33.60;30.50
12166;DHT22;6146;48.128;11.476;2023-06-14T08:15:34;32.30;32.20
12166;DHT22;6146;48.128;11.476;2023-06-14T08:18:00;32.30;31.30
12166;DHT22;6146;48.128;11.476;2023-06-14T08:20:26;32.40;32.00
12166;DHT22;6146;48.128;11.476;2023-06-14T08:22:52;32.80;31.40
12166;DHT22;6146;48.128;11.476;2023-06-14T08:25:20;33.10;30.50
12166;DHT22;6146;48.128;11.476;2023-06-14T08:27:46;33.20;30.00
12166;DHT22;6146;48.128;11.476;2023-06-14T08:30:12;34.20;29.50
12166;DHT22;6146;48.128;11.476;2023-06-14T08:32:38;33.90;29.10
12166;DHT22;6146;48.128;11.476;2023-06-14T08:35:04;33.70;29.00
12166;DHT22;6146;48.128;11.476;2023-06-14T08:37:31;32.80;29.50
12166;DHT22;6146;48.128;11.476;2023-06-14T08:39:56;31.60;31.40
12166;DHT22;6146;48.128;11.476;2023-06-14T08:42:24;31.00;31.40
12166;DHT22;6146;48.128;11.476;2023-06-14T08:44:49;30.20;32.30
12166;DHT22;6146;48.128;11.476;2023-06-14T08:47:15;29.90;32.50
12166;DHT22;6146;48.128;11.476;2023-06-14T08:49:46;30.20;32.70
12166;DHT22;6146;48.128;11.476;2023-06-14T08:52:13;30.90;31.30
12166;DHT22;6146;48.128;11.476;2023-06-14T08:54:44;32.00;30.40
12166;DHT22;6146;48.128;11.476;2023-06-14T08:57:11;30.60;31.90
12166;DHT22;6146;48.128;11.476;2023-06-14T08:59:46;30.90;32.60
12166;DHT22;6146;48.128;11.476;2023-06-14T09:02:12;30.70;31.60
12166;DHT22;6146;48.128;11.476;2023-06-14T09:04:38;30.00;33.10
12166;DHT22;6146;48.128;11.476;2023-06-14T09:07:05;30.00;32.00
12166;DHT22;6146;48.128;11.476;2023-06-14T09:09:32;29.30;32.10
12166;DHT22;6146;48.128;11.476;2023-06-14T09:11:58;30.20;32.30
12166;DHT22;6146;48.128;11.476;2023-06-14T09:14:26;31.10;32.10
12166;DHT22;6146;48.128;11.476;2023-06-14T09:16:54;31.40;29.90
12166;DHT22;6146;48.128;11.476;2023-06-14T09:19:24;31.40;30.80
12166;DHT22;6146;48.128;11.476;2023-06-14T09:21:50;32.20;30.70
12166;DHT22;6146;48.128;11.476;2023-06-14T09:24:18;32.60;29.70
12166;DHT22;6146;48.128;11.476;2023-06-14T09:26:47;32.80;29.70
12166;DHT22;6146;48.128;11.476;2023-06-14T09:29:12;32.60;29.50
12166;DHT22;6146;48.128;11.476;2023-06-14T09:31:38;31.70;29.60
12166;DHT22;6146;48.128;11.476;2023-06-14T09:34:05;31.40;30.90
12166;DHT22;6146;48.128;11.476;2023-06-14T09:36:31;32.40;29.90
12166;DHT22;6146;48.128;11.476;2023-06-14T09:38:59;32.50;29.60
12166;DHT22;6146;48.128;11.476;2023-06-14T09:41:37;32.20;30.20
12166;DHT22;6146;48.128;11.476;2023-06-14T09:44:04;31.60;30.20
12166;DHT22;6146;48.128;11.476;2023-06-14T09:46:31;30.50;32.00
12166;DHT22;6146;48.128;11.476;2023-06-14T09:48:57;29.60;34.00
12166;DHT22;6146;48.128;11.476;2023-06-14T09:51:23;30.50;32.90
12166;DHT22;6146;48.128;11.476;2023-06-14T09:53:49;31.90;31.70
12166;DHT22;6146;48.128;11.476;2023-06-14T09:56:34;32.90;30.30
12166;DHT22;6146;48.128;11.476;2023-06-14T09:59:01;32.60;31.60
12166;DHT22;6146;48.128;11.476;2023-06-14T10:01:31;33.30;30.30
12166;DHT22;6146;48.128;11.476;2023-06-14T10:04:04;33.40;30.00
12166;DHT22;6146;48.128;11.476;2023-06-14T10:06:31;33.70;29.80
12166;DHT22;6146;48.128;11.476;2023-06-14T10:08:59;33.50;29.50
12166;DHT22;6146;48.128;11.476;2023-06-14T10:11:28;31.30;31.20
12166;DHT22;6146;48.128;11.476;2023-06-14T10:13:55;29.30;33.70
12166;DHT22;6146;48.128;11.476;2023-06-14T10:19:25;28.00;36.90
12166;DHT22;6146;48.128;11.476;2023-06-14T10:22:03;27.70;37.70
12166;DHT22;6146;48.128;11.476;2023-06-14T10:24:40;27.50;38.60
12166;DHT22;6146;48.128;11.476;2023-06-14T10:27:07;28.20;37.80
12166;DHT22;6146;48.128;11.476;2023-06-14T10:32:21;27.70;38.60
12166;DHT22;6146;48.128;11.476;2023-06-14T10:34:53;28.10;36.50
12166;DHT22;6146;48.128;11.476;2023-06-14T10:37:19;29.30;35.50
12166;DHT22;6146;48.128;11.476;2023-06-14T10:39:45;31.10;34.00
12166;DHT22;6146;48.128;11.476;2023-06-14T10:42:12;31.00;34.30
12166;DHT22;6146;48.128;11.476;2023-06-14T10:47:10;27.80;37.70
12166;DHT22;6146;48.128;11.476;2023-06-14T10:49:44;27.10;37.80
12166;DHT22;6146;48.128;11.476;2023-06-14T10:52:12;27.30;39.40
12166;DHT22;6146;48.128;11.476;2023-06-14T10:55:16;28.90;37.60
12166;DHT22;6146;48.128;11.476;2023-06-14T10:57:51;29.70;36.60
12166;DHT22;6146;48.128;11.476;2023-06-14T11:00:23;29.30;36.00
12166;DHT22;6146;48.128;11.476;2023-06-14T11:05:54;29.30;35.70
12166;DHT22;6146;48.128;11.476;2023-06-14T11:08:51;28.40;37.00
12166;DHT22;6146;48.128;11.476;2023-06-14T11:11:22;27.30;39.90
12166;DHT22;6146;48.128;11.476;2023-06-14T11:13:48;25.90;41.10
12166;DHT22;6146;48.128;11.476;2023-06-14T11:16:15;25.50;42.60
12166;DHT22;6146;48.128;11.476;2023-06-14T11:18:42;26.20;40.40
12166;DHT22;6146;48.128;11.476;2023-06-14T11:21:09;27.00;38.30
12166;DHT22;6146;48.128;11.476;2023-06-14T11:23:37;28.10;37.60
12166;DHT22;6146;48.128;11.476;2023-06-14T11:26:03;29.00;37.50
12166;DHT22;6146;48.128;11.476;2023-06-14T11:28:39;28.40;37.50
12166;DHT22;6146;48.128;11.476;2023-06-14T11:31:06;28.20;37.30
12166;DHT22;6146;48.128;11.476;2023-06-14T11:33:32;28.00;38.50
12166;DHT22;6146;48.128;11.476;2023-06-14T11:35:57;28.60;37.40
12166;DHT22;6146;48.128;11.476;2023-06-14T11:38:23;29.10;37.10
12166;DHT22;6146;48.128;11.476;2023-06-14T11:40:50;29.30;35.50
12166;DHT22;6146;48.128;11.476;2023-06-14T11:43:15;29.00;35.80
12166;DHT22;6146;48.128;11.476;2023-06-14T11:45:42;28.80;35.70
12166;DHT22;6146;48.128;11.476;2023-06-14T11:48:08;28.90;35.30
12166;DHT22;6146;48.128;11.476;2023-06-14T11:50:37;28.50;35.50
12166;DHT22;6146;48.128;11.476;2023-06-14T11:53:04;26.80;36.70
12166;DHT22;6146;48.128;11.476;2023-06-14T11:55:38;25.90;38.40
12166;DHT22;6146;48.128;11.476;2023-06-14T11:58:05;25.60;38.70
12166;DHT22;6146;48.128;11.476;2023-06-14T12:00:31;25.70;38.30
12166;DHT22;6146;48.128;11.476;2023-06-14T12:02:57;26.10;37.80
12166;DHT22;6146;48.128;11.476;2023-06-14T12:05:23;26.30;37.30
12166;DHT22;6146;48.128;11.476;2023-06-14T12:07:50;26.50;38.10
12166;DHT22;6146;48.128;11.476;2023-06-14T12:10:18;26.40;37.40
12166;DHT22;6146;48.128;11.476;2023-06-14T12:12:44;25.70;38.30
12166;DHT22;6146;48.128;11.476;2023-06-14T12:15:10;25.30;38.30
12166;DHT22;6146;48.128;11.476;2023-06-14T12:17:38;25.40;39.70
12166;DHT22;6146;48.128;11.476;2023-06-14T12:20:14;25.80;38.00
12166;DHT22;6146;48.128;11.476;2023-06-14T12:22:51;26.00;38.10
12166;DHT22;6146;48.128;11.476;2023-06-14T12:25:27;26.20;37.90
12166;DHT22;6146;48.128;11.476;2023-06-14T12:27:54;26.10;38.40
12166;DHT22;6146;48.128;11.476;2023-06-14T12:30:20;26.30;38.00
12166;DHT22;6146;48.128;11.476;2023-06-14T12:32:45;26.20;37.70
12166;DHT22;6146;48.128;11.476;2023-06-14T12:35:11;26.50;37.80
12166;DHT22;6146;48.128;11.476;2023-06-14T12:37:37;26.80;36.80
12166;DHT22;6146;48.128;11.476;2023-06-14T12:40:03;26.90;36.80
12166;DHT22;6146;48.128;11.476;2023-06-14T12:42:31;26.90;35.70
12166;DHT22;6146;48.128;11.476;2023-06-14T12:44:57;26.80;35.50
12166;DHT22;6146;48.128;11.476;2023-06-14T12:47:22;26.30;36.10
12166;DHT22;6146;48.128;11.476;2023-06-14T12:49:48;26.20;37.20
12166;DHT22;6146;48.128;11.476;2023-06-14T12:52:13;26.50;38.20
12166;DHT22;6146;48.128;11.476;2023-06-14T12:54:39;27.00;37.60
12166;DHT22;6146;48.128;11.476;2023-06-14T12:57:05;26.70;37.00
12166;DHT22;6146;48.128;11.476;2023-06-14T12:59:31;26.40;37.20
12166;DHT22;6146;48.128;11.476;2023-06-14T13:02:09;26.00;37.30
12166;DHT22;6146;48.128;11.476;2023-06-14T13:04:35;25.50;38.50
12166;DHT22;6146;48.128;11.476;2023-06-14T13:07:00;24.80;39.60
12166;DHT22;6146;48.128;11.476;2023-06-14T13:09:26;24.80;40.50
12166;DHT22;6146;48.128;11.476;2023-06-14T13:11:52;24.80;39.90
12166;DHT22;6146;48.128;11.476;2023-06-14T13:14:17;25.00;40.40
12166;DHT22;6146;48.128;11.476;2023-06-14T13:16:44;25.10;39.90
12166;DHT22;6146;48.128;11.476;2023-06-14T13:19:09;25.40;40.40
12166;DHT22;6146;48.128;11.476;2023-06-14T13:21:35;25.70;40.10
12166;DHT22;6146;48.128;11.476;2023-06-14T13:24:00;26.20;39.10
12166;DHT22;6146;48.128;11.476;2023-06-14T13:26:26;26.40;38.90
12166;DHT22;6146;48.128;11.476;2023-06-14T13:28:52;26.20;39.40
12166;DHT22;6146;48.128;11.476;2023-06-14T13:31:17;25.70;39.20
12166;DHT22;6146;48.128;11.476;2023-06-14T13:33:43;25.70;39.30
12166;DHT22;6146;48.128;11.476;2023-06-14T13:36:09;25.80;38.50
12166;DHT22;6146;48.128;11.476;2023-06-14T13:38:35;25.90;37.80
12166;DHT22;6146;48.128;11.476;2023-06-14T13:41:01;25.60;38.50
12166;DHT22;6146;48.128;11.476;2023-06-14T13:43:26;25.70;38.90
12166;DHT22;6146;48.128;11.476;2023-06-14T13:45:52;25.60;39.60
12166;DHT22;6146;48.128;11.476;2023-06-14T13:48:17;25.70;39.00
12166;DHT22;6146;48.128;11.476;2023-06-14T13:50:43;26.10;38.20
12166;DHT22;6146;48.128;11.476;2023-06-14T13:53:09;26.20;38.40
12166;DHT22;6146;48.128;11.476;2023-06-14T13:55:35;25.90;38.60
12166;DHT22;6146;48.128;11.476;2023-06-14T13:58:00;25.90;38.80
12166;DHT22;6146;48.128;11.476;2023-06-14T14:00:26;26.10;38.30
12166;DHT22;6146;48.128;11.476;2023-06-14T14:02:52;25.90;37.50
12166;DHT22;6146;48.128;11.476;2023-06-14T14:05:17;25.60;39.30
12166;DHT22;6146;48.128;11.476;2023-06-14T14:07:43;25.60;39.40
12166;DHT22;6146;48.128;11.476;2023-06-14T14:10:09;25.60;39.20
12166;DHT22;6146;48.128;11.476;2023-06-14T14:12:35;25.70;38.20
12166;DHT22;6146;48.128;11.476;2023-06-14T14:15:00;25.90;37.90
12166;DHT22;6146;48.128;11.476;2023-06-14T14:17:26;25.90;37.80
12166;DHT22;6146;48.128;11.476;2023-06-14T14:19:52;25.90;37.00
12166;DHT22;6146;48.128;11.476;2023-06-14T14:22:17;25.70;36.90
12166;DHT22;6146;48.128;11.476;2023-06-14T14:24:43;26.00;38.00
12166;DHT22;6146;48.128;11.476;2023-06-14T14:27:08;25.60;38.30
12166;DHT22;6146;48.128;11.476;2023-06-14T14:29:34;25.20;39.10
12166;DHT22;6146;48.128;11.476;2023-06-14T14:32:00;25.00;38.30
12166;DHT22;6146;48.128;11.476;2023-06-14T14:34:26;24.70;39.00
12166;DHT22;6146;48.128;11.476;2023-06-14T14:36:53;24.60;39.40
12166;DHT22;6146;48.128;11.476;2023-06-14T14:39:19;24.50;40.20
12166;DHT22;6146;48.128;11.476;2023-06-14T14:41:45;24.50;40.10
12166;DHT22;6146;48.128;11.476;2023-06-14T14:44:10;24.50;40.30
12166;DHT22;6146;48.128;11.476;2023-06-14T14:46:36;24.60;40.20
12166;DHT22;6146;48.128;11.476;2023-06-14T14:49:01;24.50;40.00
12166;DHT22;6146;48.128;11.476;2023-06-14T14:51:28;24.20;41.20
12166;DHT22;6146;48.128;11.476;2023-06-14T14:53:53;24.10;42.60
12166;DHT22;6146;48.128;11.476;2023-06-14T14:56:19;24.20;42.60
12166;DHT22;6146;48.128;11.476;2023-06-14T14:58:44;24.40;41.60
12166;DHT22;6146;48.128;11.476;2023-06-14T15:01:10;24.30;40.90
12166;DHT22;6146;48.128;11.476;2023-06-14T15:03:36;24.10;41.50
12166;DHT22;6146;48.128;11.476;2023-06-14T15:06:01;23.80;41.70
12166;DHT22;6146;48.128;11.476;2023-06-14T15:08:27;23.50;42.10
12166;DHT22;6146;48.128;11.476;2023-06-14T15:10:52;23.60;42.70
12166;DHT22;6146;48.128;11.476;2023-06-14T15:13:18;23.80;43.90
12166;DHT22;6146;48.128;11.476;2023-06-14T15:15:44;24.00;43.00
12166;DHT22;6146;48.128;11.476;2023-06-14T15:18:09;23.90;43.10
12166;DHT22;6146;48.128;11.476;2023-06-14T15:20:35;23.80;44.40
12166;DHT22;6146;48.128;11.476;2023-06-14T15:23:00;23.80;44.20
12166;DHT22;6146;48.128;11.476;2023-06-14T15:25:29;23.70;43.60
12166;DHT22;6146;48.128;11.476;2023-06-14T15:27:56;23.50;43.50
12166;DHT22;6146;48.128;11.476;2023-06-14T15:30:22;23.50;43.90
12166;DHT22;6146;48.128;11.476;2023-06-14T15:32:48;23.60;43.30
12166;DHT22;6146;48.128;11.476;2023-06-14T15:35:16;23.70;43.40
12166;DHT22;6146;48.128;11.476;2023-06-14T15:37:42;23.30;43.60
12166;DHT22;6146;48.128;11.476;2023-06-14T15:40:08;23.20;44.30
12166;DHT22;6146;48.128;11.476;2023-06-14T15:42:34;23.00;44.30
12166;DHT22;6146;48.128;11.476;2023-06-14T15:45:00;22.90;44.70